createdAt,value
2022-08-30T00:02:09.301Z,6.40
2022-08-30T00:04:39.116Z,6.23
2022-08-30T00:07:07.242Z,6.93
2022-08-30T00:09:35.298Z,7.20
2022-08-30T00:12:04.449Z,5.93
2022-08-30T00:14:32.505Z,6.70
2022-08-30T00:17:00.519Z,6.10
2022-08-30T00:19:28.595Z,6.67
2022-08-30T00:21:57.991Z,5.33
2022-08-30T00:24:26.060Z,6.77
2022-08-30T00:26:54.061Z,6.20
2022-08-30T00:29:22.441Z,8.50
2022-08-30T00:31:50.732Z,8.67
2022-08-30T00:34:18.890Z,5.83
2022-08-30T00:36:47.086Z,6.30
2022-08-30T00:39:16.449Z,8.27
2022-08-30T00:41:44.851Z,5.93
2022-08-30T00:44:12.922Z,5.90
2022-08-30T00:46:41.187Z,6.50
2022-08-30T00:49:12.108Z,5.57
2022-08-30T00:51:41.080Z,6.53
2022-08-30T00:54:09.739Z,7.50
2022-08-30T00:56:39.456Z,8.23
2022-08-30T00:59:09.480Z,7.03
2022-08-30T01:01:38.305Z,6.53
2022-08-30T01:04:08.666Z,8.13
2022-08-30T01:06:37.433Z,7.07
2022-08-30T01:09:06.166Z,9.83
2022-08-30T01:11:37.420Z,5.63
2022-08-30T01:14:09.077Z,7.00
2022-08-30T01:16:40.539Z,6.50
2022-08-30T01:19:15.096Z,6.73
2022-08-30T01:21:48.749Z,6.47
2022-08-30T01:24:19.647Z,8.07
2022-08-30T01:26:47.627Z,8.10
2022-08-30T01:29:21.557Z,5.80
2022-08-30T01:31:50.137Z,8.77
2022-08-30T01:34:19.284Z,6.67
2022-08-30T01:36:47.955Z,7.80
2022-08-30T01:39:19.265Z,7.10
2022-08-30T01:41:47.332Z,9.20
2022-08-30T01:44:15.838Z,7.00
2022-08-30T01:46:47.004Z,7.60
2022-08-30T01:49:27.847Z,6.70
2022-08-30T01:52:01.071Z,6.97
2022-08-30T01:54:36.597Z,7.53
2022-08-30T01:57:07.604Z,8.50
2022-08-30T01:59:36.346Z,6.70
2022-08-30T02:02:05.228Z,9.40
2022-08-30T02:04:33.386Z,7.77
2022-08-30T02:07:01.493Z,6.43
2022-08-30T02:09:31.196Z,7.70
2022-08-30T02:11:59.403Z,6.83
2022-08-30T02:14:27.570Z,8.40
2022-08-30T02:16:56.341Z,7.77
2022-08-30T02:19:24.439Z,6.87
2022-08-30T02:21:52.430Z,7.20
2022-08-30T02:24:20.443Z,7.80
2022-08-30T02:26:49.848Z,6.90
2022-08-30T02:29:17.874Z,6.73
2022-08-30T02:31:45.947Z,6.50
2022-08-30T02:34:13.978Z,9.50
2022-08-30T02:36:42.105Z,7.60
2022-08-30T02:39:11.190Z,7.27
2022-08-30T02:41:39.266Z,7.70
2022-08-30T02:44:09.986Z,7.10
2022-08-30T02:46:38.927Z,10.13
2022-08-30T02:49:32.216Z,7.57
2022-08-30T02:51:56.642Z,8.77
2022-08-30T02:54:24.708Z,7.23
2022-08-30T02:56:52.779Z,7.50
2022-08-30T02:59:22.170Z,7.93
2022-08-30T03:01:50.253Z,7.60
2022-08-30T03:04:18.295Z,6.63
2022-08-30T03:06:54.883Z,7.90
2022-08-30T03:09:23.366Z,11.53
2022-08-30T03:11:51.339Z,7.37
2022-08-30T03:14:19.683Z,8.20
2022-08-30T03:16:49.028Z,10.20
2022-08-30T03:19:17.064Z,9.43
2022-08-30T03:21:45.942Z,8.00
2022-08-30T03:24:14.511Z,7.20
2022-08-30T03:26:46.159Z,7.47
2022-08-30T03:29:14.428Z,7.87
2022-08-30T03:31:53.132Z,7.43
2022-08-30T03:34:24.717Z,6.87
2022-08-30T03:36:54.833Z,7.20
2022-08-30T03:39:25.644Z,8.30
2022-08-30T03:41:54.819Z,7.90
2022-08-30T03:44:22.896Z,7.43
2022-08-30T03:46:51.606Z,8.23
2022-08-30T03:49:20.408Z,8.57
2022-08-30T03:51:50.049Z,6.83
2022-08-30T03:54:18.362Z,9.33
2022-08-30T03:56:46.641Z,7.87
2022-08-30T03:59:14.988Z,7.30
2022-08-30T04:01:43.053Z,10.20
2022-08-30T04:04:12.028Z,7.80
2022-08-30T04:06:40.158Z,9.77
2022-08-30T04:09:09.572Z,8.53
2022-08-30T04:11:37.997Z,10.20
2022-08-30T04:14:06.193Z,8.20
2022-08-30T04:16:34.254Z,8.13
2022-08-30T04:19:02.428Z,8.20
2022-08-30T04:21:30.451Z,7.60
2022-08-30T04:23:58.668Z,11.30
2022-08-30T04:26:29.572Z,8.00
2022-08-30T04:28:59.311Z,8.73
2022-08-30T04:31:27.748Z,8.00
2022-08-30T04:33:56.051Z,9.80
2022-08-30T04:36:24.857Z,7.70
2022-08-30T04:38:52.913Z,8.60
2022-08-30T04:41:24.471Z,8.13
2022-08-30T04:43:53.949Z,9.67
2022-08-30T04:46:22.150Z,11.30
2022-08-30T04:48:50.680Z,8.23
2022-08-30T04:51:19.373Z,8.13
2022-08-30T04:53:47.435Z,9.77
2022-08-30T04:56:18.600Z,8.13
2022-08-30T04:58:47.754Z,8.23
2022-08-30T05:01:20.083Z,9.30
2022-08-30T05:03:48.362Z,8.90
2022-08-30T05:06:17.683Z,9.97
2022-08-30T05:08:46.958Z,7.63
2022-08-30T05:11:16.593Z,8.43
2022-08-30T05:13:44.821Z,8.83
2022-08-30T05:16:18.042Z,10.30
2022-08-30T05:18:49.739Z,9.27
2022-08-30T05:21:20.124Z,10.30
2022-08-30T05:23:49.711Z,8.17
2022-08-30T05:26:20.898Z,8.60
2022-08-30T05:28:49.652Z,9.47
2022-08-30T05:31:20.357Z,8.57
2022-08-30T05:33:51.120Z,8.13
2022-08-30T05:36:20.464Z,10.70
2022-08-30T05:38:48.898Z,10.23
2022-08-30T05:41:19.410Z,9.53
2022-08-30T05:43:48.546Z,9.03
2022-08-30T05:46:19.471Z,10.10
2022-08-30T05:48:49.913Z,7.67
2022-08-30T05:51:20.114Z,8.10
2022-08-30T05:53:49.446Z,8.63
2022-08-30T05:56:20.802Z,8.70
2022-08-30T05:58:49.780Z,9.93
2022-08-30T06:01:22.841Z,9.07
2022-08-30T06:03:53.210Z,9.27
2022-08-30T06:06:21.509Z,8.77
2022-08-30T06:08:50.050Z,7.73
2022-08-30T06:11:20.773Z,8.30
2022-08-30T06:13:49.572Z,9.70
2022-08-30T06:16:19.748Z,8.70
2022-08-30T06:18:48.749Z,9.23
2022-08-30T06:21:19.666Z,12.43
2022-08-30T06:23:47.804Z,11.40
2022-08-30T06:26:16.343Z,15.00
2022-08-30T06:28:44.627Z,11.40
2022-08-30T06:31:14.753Z,12.60
2022-08-30T06:33:43.177Z,11.93
2022-08-30T06:36:13.067Z,13.37
2022-08-30T06:38:42.662Z,14.40
2022-08-30T06:41:12.861Z,13.27
2022-08-30T06:43:43.507Z,14.30
2022-08-30T06:46:17.206Z,12.43
2022-08-30T06:48:47.828Z,11.20
2022-08-30T06:51:20.217Z,10.37
2022-08-30T06:53:50.019Z,10.87
2022-08-30T06:56:19.612Z,15.13
2022-08-30T06:58:47.963Z,14.00
2022-08-30T07:01:18.138Z,10.33
2022-08-30T07:03:46.439Z,11.80
2022-08-30T07:06:14.839Z,10.60
2022-08-30T07:08:43.478Z,11.10
2022-08-30T07:11:12.903Z,10.60
2022-08-30T07:13:40.950Z,14.37
2022-08-30T07:16:13.098Z,9.77
2022-08-30T07:18:54.971Z,11.97
2022-08-30T07:21:26.398Z,9.83
2022-08-30T07:23:55.708Z,10.40
2022-08-30T07:26:27.332Z,10.30
2022-08-30T07:28:57.281Z,10.13
2022-08-30T07:31:26.227Z,9.40
2022-08-30T07:33:54.530Z,8.90
2022-08-30T07:36:23.071Z,9.37
2022-08-30T07:38:52.846Z,9.50
2022-08-30T07:41:24.985Z,8.47
2022-08-30T07:43:54.857Z,8.30
2022-08-30T07:46:24.063Z,10.83
2022-08-30T07:48:54.214Z,9.40
2022-08-30T07:51:24.692Z,9.73
2022-08-30T07:53:53.130Z,8.63
2022-08-30T07:56:21.865Z,7.70
2022-08-30T07:58:50.634Z,9.00
2022-08-30T08:01:21.813Z,8.93
2022-08-30T08:03:50.383Z,8.20
2022-08-30T08:06:21.725Z,9.57
2022-08-30T08:08:50.634Z,8.50
2022-08-30T08:11:21.577Z,8.00
2022-08-30T08:13:54.140Z,9.27
2022-08-30T08:16:26.643Z,7.77
2022-08-30T08:18:55.844Z,10.07
2022-08-30T08:21:24.973Z,8.50
2022-08-30T08:23:53.336Z,7.47
2022-08-30T08:26:22.248Z,7.50
2022-08-30T08:28:50.388Z,7.10
2022-08-30T08:31:19.892Z,6.87
2022-08-30T08:33:49.470Z,9.30
2022-08-30T08:36:18.491Z,7.07
2022-08-30T08:38:46.553Z,7.30
2022-08-30T08:41:25.656Z,7.60
2022-08-30T08:43:53.681Z,7.50
2022-08-30T08:46:29.075Z,9.07
2022-08-30T08:49:02.515Z,8.83
2022-08-30T08:51:51.586Z,7.10
2022-08-30T08:54:26.195Z,9.03
2022-08-30T08:56:55.104Z,9.67
2022-08-30T08:59:23.517Z,6.90
2022-08-30T09:01:51.814Z,7.40
2022-08-30T09:04:29.220Z,8.17
2022-08-30T09:07:00.364Z,7.53
2022-08-30T09:09:32.289Z,8.67
2022-08-30T09:12:00.538Z,7.67
2022-08-30T09:14:34.134Z,8.63
2022-08-30T09:17:04.321Z,7.57
2022-08-30T09:19:41.552Z,7.10
2022-08-30T09:22:23.187Z,7.63
2022-08-30T09:24:53.646Z,6.10
2022-08-30T09:27:26.008Z,6.60
2022-08-30T09:29:58.833Z,6.97
2022-08-30T09:32:36.310Z,6.67
2022-08-30T09:35:09.391Z,6.07
2022-08-30T09:37:41.193Z,6.40
2022-08-30T09:40:13.019Z,6.60
2022-08-30T09:42:41.128Z,6.10
2022-08-30T09:45:21.271Z,7.00
2022-08-30T09:47:49.306Z,6.60
2022-08-30T09:50:24.096Z,5.80
2022-08-30T09:53:11.693Z,5.97
2022-08-30T09:55:52.624Z,6.60
2022-08-30T09:58:30.088Z,6.07
2022-08-30T10:01:05.362Z,6.23
2022-08-30T10:03:40.632Z,6.23
2022-08-30T10:06:19.654Z,5.77
2022-08-30T10:08:59.452Z,6.43
2022-08-30T10:11:33.189Z,6.80
2022-08-30T10:14:27.282Z,6.00
2022-08-30T10:17:04.341Z,6.90
2022-08-30T10:19:51.292Z,7.27
2022-08-30T10:22:26.023Z,6.43
2022-08-30T10:24:59.943Z,7.10
2022-08-30T10:27:30.640Z,6.47
2022-08-30T10:30:05.917Z,6.73
2022-08-30T10:32:39.925Z,6.73
2022-08-30T10:35:10.826Z,6.93
2022-08-30T10:37:44.620Z,5.77
2022-08-30T10:40:32.126Z,5.87
2022-08-30T10:43:03.629Z,6.03
2022-08-30T10:45:36.922Z,5.90
2022-08-30T10:48:12.388Z,5.57
2022-08-30T10:50:47.112Z,5.37
2022-08-30T10:53:20.363Z,4.17
2022-08-30T10:55:52.864Z,4.57
2022-08-30T10:58:21.503Z,4.93
2022-08-30T11:01:01.194Z,5.17
2022-08-30T11:03:49.886Z,4.13
2022-08-30T11:06:24.323Z,5.37
2022-08-30T11:09:35.907Z,5.50
2022-08-30T11:12:23.765Z,4.90
2022-08-30T11:14:53.129Z,5.57
2022-08-30T11:17:28.190Z,5.53
2022-08-30T11:19:59.981Z,5.50
2022-08-30T11:22:31.210Z,5.90
2022-08-30T11:25:10.355Z,5.13
2022-08-30T11:27:45.127Z,5.37
2022-08-30T11:30:47.430Z,5.93
2022-08-30T11:33:42.073Z,5.87
2022-08-30T11:36:38.716Z,5.43
2022-08-30T11:39:54.279Z,4.97
2022-08-30T11:42:39.030Z,4.77
2022-08-30T11:45:45.510Z,5.50
2022-08-30T11:48:53.637Z,4.87
2022-08-30T11:52:26.622Z,5.60
2022-08-30T11:54:56.789Z,5.20
2022-08-30T11:57:32.571Z,5.50
2022-08-30T12:00:09.379Z,4.70
2022-08-30T12:02:50.772Z,5.10
2022-08-30T12:05:49.463Z,5.50
2022-08-30T12:08:59.996Z,5.03
2022-08-30T12:11:56.230Z,5.17
2022-08-30T12:14:41.281Z,5.90
2022-08-30T12:17:37.942Z,5.43
2022-08-30T12:20:15.007Z,5.77
2022-08-30T12:22:42.932Z,5.37
2022-08-30T12:25:18.879Z,5.50
2022-08-30T12:27:48.271Z,5.57
2022-08-30T12:30:24.706Z,5.70
2022-08-30T12:32:55.558Z,5.03
2022-08-30T12:35:27.945Z,5.20
2022-08-30T12:38:00.255Z,5.50
2022-08-30T12:40:31.635Z,5.50
2022-08-30T12:43:02.763Z,6.63
2022-08-30T12:45:39.649Z,4.60
2022-08-30T12:48:11.037Z,5.40
2022-08-30T12:50:48.830Z,4.83
2022-08-30T12:53:25.283Z,5.30
2022-08-30T12:55:56.899Z,5.30
2022-08-30T12:58:37.191Z,5.93
2022-08-30T13:01:25.353Z,5.60
2022-08-30T13:04:02.207Z,5.27
2022-08-30T13:06:43.990Z,5.50
2022-08-30T13:09:24.817Z,5.50
2022-08-30T13:11:52.860Z,5.40
2022-08-30T13:14:31.284Z,5.67
2022-08-30T13:17:12.088Z,5.23
2022-08-30T13:19:42.870Z,5.50
2022-08-30T13:22:27.140Z,5.90
2022-08-30T13:24:55.987Z,5.13
2022-08-30T13:27:25.672Z,5.40
2022-08-30T13:29:53.763Z,5.17
2022-08-30T13:32:22.499Z,4.63
2022-08-30T13:34:52.308Z,6.10
2022-08-30T13:40:14.014Z,5.60
2022-08-30T13:42:42.956Z,5.77
2022-08-30T13:48:01.443Z,5.60
2022-08-30T13:50:30.810Z,5.13
2022-08-30T13:52:59.087Z,5.10
2022-08-30T13:55:27.700Z,5.17
2022-08-30T13:57:57.304Z,5.00
2022-08-30T14:00:27.515Z,5.40
2022-08-30T14:02:57.424Z,6.13
2022-08-30T14:05:48.210Z,5.27
2022-08-30T14:11:09.248Z,7.17
2022-08-30T14:13:37.534Z,5.30
2022-08-30T14:18:57.384Z,5.20
2022-08-30T14:21:26.809Z,5.13
2022-08-30T14:23:55.969Z,5.07
2022-08-30T14:26:28.345Z,5.30
2022-08-30T14:29:01.319Z,4.70
2022-08-30T14:31:30.122Z,5.83
2022-08-30T14:34:00.979Z,5.47
2022-08-30T14:36:30.635Z,4.87
2022-08-30T14:38:58.939Z,5.30
2022-08-30T14:41:27.084Z,5.90
2022-08-30T14:43:55.074Z,5.13
2022-08-30T14:46:25.702Z,5.37
2022-08-30T14:48:54.361Z,4.83
2022-08-30T14:51:24.324Z,5.40
2022-08-30T14:53:55.191Z,5.00
2022-08-30T14:56:24.977Z,5.40
2022-08-30T14:59:00.146Z,5.43
2022-08-30T15:01:29.319Z,5.50
2022-08-30T15:03:58.297Z,5.73
2022-08-30T15:06:26.677Z,6.20
2022-08-30T15:08:56.973Z,5.83
2022-08-30T15:11:28.004Z,5.60
2022-08-30T15:13:57.613Z,6.03
2022-08-30T15:16:28.048Z,5.80
2022-08-30T15:18:57.739Z,5.73
2022-08-30T15:21:28.296Z,5.30
2022-08-30T15:23:58.374Z,5.67
2022-08-30T15:26:26.585Z,5.17
2022-08-30T15:28:55.993Z,6.03
2022-08-30T15:31:28.108Z,5.30
2022-08-30T15:33:56.654Z,5.87
2022-08-30T15:36:25.116Z,5.67
2022-08-30T15:38:55.395Z,5.70
2022-08-30T15:41:25.432Z,5.00
2022-08-30T15:43:55.800Z,5.60
2022-08-30T15:46:29.625Z,5.10
2022-08-30T15:49:03.468Z,6.03
2022-08-30T15:51:40.961Z,5.43
2022-08-30T15:54:11.676Z,5.30
2022-08-30T15:56:41.912Z,4.97
2022-08-30T15:59:10.767Z,5.40
2022-08-30T16:01:39.109Z,5.63
2022-08-30T16:04:07.307Z,7.57
2022-08-30T16:06:37.613Z,6.00
2022-08-30T16:09:06.717Z,5.70
2022-08-30T16:11:35.377Z,5.97
2022-08-30T16:14:05.823Z,5.60
2022-08-30T16:16:34.823Z,5.80
2022-08-30T16:19:02.952Z,5.80
2022-08-30T16:21:32.743Z,5.60
2022-08-30T16:24:03.038Z,5.73
2022-08-30T16:26:32.917Z,5.50
2022-08-30T16:29:01.666Z,6.00
2022-08-30T16:31:32.127Z,7.00
2022-08-30T16:34:02.405Z,5.90
2022-08-30T16:36:32.532Z,6.40
2022-08-30T16:39:01.250Z,6.63
2022-08-30T16:41:31.503Z,5.20
2022-08-30T16:44:01.007Z,6.87
2022-08-30T16:46:30.648Z,6.13
2022-08-30T16:49:01.412Z,7.47
2022-08-30T16:51:31.591Z,6.27
2022-08-30T16:54:02.040Z,6.93
2022-08-30T16:56:32.290Z,6.03
2022-08-30T16:59:02.577Z,6.60
2022-08-30T17:01:34.641Z,6.40
2022-08-30T17:04:03.805Z,5.77
2022-08-30T17:06:32.041Z,6.17
2022-08-30T17:09:00.323Z,6.10
2022-08-30T17:11:28.629Z,5.90
2022-08-30T17:13:56.635Z,5.90
2022-08-30T17:16:27.831Z,6.80
2022-08-30T17:19:00.550Z,6.63
2022-08-30T17:21:29.129Z,6.13
2022-08-30T17:24:01.820Z,6.40
2022-08-30T17:26:32.090Z,6.70
2022-08-30T17:29:00.543Z,5.90
2022-08-30T17:34:21.293Z,5.93
2022-08-30T17:36:52.680Z,6.20
2022-08-30T17:39:23.366Z,5.57
2022-08-30T17:41:52.663Z,6.90
2022-08-30T17:44:25.602Z,6.13
2022-08-30T17:46:54.054Z,5.90
2022-08-30T17:49:23.874Z,7.50
2022-08-30T17:51:56.664Z,6.63
2022-08-30T17:54:25.721Z,6.50
2022-08-30T17:56:54.475Z,6.80
2022-08-30T17:59:25.430Z,6.80
2022-08-30T18:01:55.722Z,6.80
2022-08-30T18:04:26.797Z,6.90
2022-08-30T18:06:55.615Z,5.93
2022-08-30T18:09:24.905Z,7.13
2022-08-30T18:11:56.379Z,6.20
2022-08-30T18:14:25.473Z,7.00
2022-08-30T18:16:54.664Z,6.63
2022-08-30T18:19:23.554Z,6.90
2022-08-30T18:21:53.515Z,8.73
2022-08-30T18:24:22.648Z,7.20
2022-08-30T18:26:51.050Z,6.53
2022-08-30T18:29:26.193Z,8.57
2022-08-30T18:31:58.328Z,6.57
2022-08-30T18:34:26.683Z,6.53
2022-08-30T18:36:56.478Z,6.10
2022-08-30T18:39:24.800Z,6.03
2022-08-30T18:41:54.448Z,8.67
2022-08-30T18:44:33.426Z,6.63
2022-08-30T18:47:03.976Z,5.93
2022-08-30T18:49:35.697Z,6.17
2022-08-30T18:52:07.500Z,6.67
2022-08-30T18:54:39.317Z,6.17
2022-08-30T18:59:56.735Z,5.87
2022-08-30T19:02:27.808Z,5.33
2022-08-30T19:04:56.015Z,5.60
2022-08-30T19:07:28.934Z,5.27
2022-08-30T19:10:02.614Z,5.30
2022-08-30T19:12:31.386Z,6.60
2022-08-30T19:15:00.107Z,5.10
2022-08-30T19:17:28.236Z,6.00
2022-08-30T19:19:56.224Z,7.10
2022-08-30T19:22:27.540Z,5.57
2022-08-30T19:24:56.712Z,7.07
2022-08-30T19:27:37.785Z,6.47
2022-08-30T19:30:08.444Z,5.20
2022-08-30T19:32:36.441Z,6.27
2022-08-30T19:35:04.749Z,6.67
2022-08-30T19:37:34.696Z,5.20
2022-08-30T19:40:03.422Z,5.70
2022-08-30T19:42:31.958Z,5.97
2022-08-30T19:45:00.097Z,5.17
2022-08-30T19:47:28.147Z,6.90
2022-08-30T19:49:58.018Z,6.07
2022-08-30T19:52:30.328Z,8.27
2022-08-30T19:55:01.004Z,5.63
2022-08-30T19:57:29.309Z,7.20
2022-08-30T19:59:59.626Z,5.90
2022-08-30T20:02:28.207Z,5.10
2022-08-30T20:04:56.269Z,4.50
2022-08-30T20:07:27.624Z,4.70
2022-08-30T20:09:56.576Z,4.77
2022-08-30T20:12:26.282Z,4.87
2022-08-30T20:14:54.294Z,4.83
2022-08-30T20:17:34.085Z,5.00
2022-08-30T20:20:17.746Z,4.60
2022-08-30T20:22:50.583Z,4.87
2022-08-30T20:24:23.739Z,7.70
2022-08-30T20:24:29.807Z,6.50
2022-08-30T20:25:22.324Z,4.73
2022-08-30T20:27:51.673Z,4.83
2022-08-30T20:30:20.205Z,4.23
2022-08-30T20:32:48.220Z,4.40
2022-08-30T20:35:17.593Z,7.50
2022-08-30T20:37:46.605Z,5.33
2022-08-30T20:40:16.220Z,4.27
2022-08-30T20:42:46.242Z,4.57
2022-08-30T20:45:18.028Z,5.60
2022-08-30T20:47:46.374Z,5.60
2022-08-30T20:50:16.920Z,5.80
2022-08-30T20:52:45.845Z,4.40
2022-08-30T20:55:15.046Z,8.37
2022-08-30T20:57:43.145Z,6.70
2022-08-30T21:00:13.733Z,5.90
2022-08-30T21:02:46.754Z,4.70
2022-08-30T21:05:17.285Z,6.30
2022-08-30T21:07:46.581Z,4.70
2022-08-30T21:10:21.210Z,4.90
2022-08-30T21:12:51.397Z,6.57
2022-08-30T21:15:37.777Z,4.60
2022-08-30T21:18:07.735Z,4.37
2022-08-30T21:20:35.995Z,4.53
2022-08-30T21:23:04.169Z,4.10
2022-08-30T21:25:34.019Z,4.87
2022-08-30T21:28:02.045Z,5.73
2022-08-30T21:30:30.102Z,6.80
2022-08-30T21:33:00.070Z,5.50
2022-08-30T21:35:47.132Z,5.03
2022-08-30T21:38:15.217Z,7.70
2022-08-30T21:40:43.479Z,6.00
2022-08-30T21:43:11.626Z,5.00
2022-08-30T21:45:39.771Z,4.47
2022-08-30T21:48:08.172Z,4.70
2022-08-30T21:50:39.796Z,5.10
2022-08-30T21:53:07.927Z,4.97
2022-08-30T21:55:38.783Z,5.23
2022-08-30T21:58:07.577Z,4.90
2022-08-30T22:00:35.650Z,5.17
2022-08-30T22:03:04.002Z,5.17
2022-08-30T22:05:31.994Z,5.90
2022-08-30T22:08:01.418Z,6.17
2022-08-30T22:10:33.077Z,6.33
2022-08-30T22:13:01.716Z,6.27
2022-08-30T22:15:31.839Z,7.60
2022-08-30T22:18:01.597Z,5.03
2022-08-30T22:20:30.603Z,6.40
2022-08-30T22:22:58.761Z,5.10
2022-08-30T22:25:28.171Z,5.60
2022-08-30T22:27:56.115Z,5.50
2022-08-30T22:30:24.139Z,5.33
2022-08-30T22:32:52.695Z,4.60
2022-08-30T22:35:21.491Z,3.97
2022-08-30T22:37:53.301Z,5.27
2022-08-30T22:40:21.917Z,6.17
2022-08-30T22:42:51.294Z,4.73
2022-08-30T22:45:19.457Z,5.50
2022-08-30T22:47:47.506Z,4.30
2022-08-30T22:50:15.495Z,4.70
2022-08-30T22:52:43.997Z,4.87
2022-08-30T22:55:12.055Z,4.47
2022-08-30T22:57:40.778Z,4.57
2022-08-30T23:00:16.024Z,4.47
2022-08-30T23:02:44.475Z,4.23
2022-08-30T23:05:13.356Z,5.10
2022-08-30T23:07:41.393Z,4.70
2022-08-30T23:10:10.392Z,4.40
2022-08-30T23:12:39.020Z,4.57
2022-08-30T23:15:10.207Z,5.73
2022-08-30T23:17:40.008Z,4.70
2022-08-30T23:20:09.582Z,5.20
2022-08-30T23:22:37.580Z,4.60
2022-08-30T23:25:24.307Z,5.20
2022-08-30T23:28:10.896Z,5.37
2022-08-30T23:30:56.113Z,5.63
2022-08-30T23:33:42.895Z,4.60
2022-08-30T23:36:30.489Z,4.87
2022-08-30T23:39:16.369Z,5.80
2022-08-30T23:42:02.346Z,4.57
2022-08-30T23:44:47.752Z,5.23
2022-08-30T23:47:33.109Z,6.23
2022-08-30T23:50:19.775Z,4.77
2022-08-30T23:53:05.174Z,5.33
2022-08-30T23:55:50.658Z,3.93
2022-08-30T23:58:36.033Z,5.17
